Time;durP1;ratioP1;P1;durP2;ratioP2;P2;SDS_P1;SDS_P2;PMS_P1;PMS_P2;Temp;Humidity;BMP_temperature;BMP_pressure;BME280_temperature;BME280_humidity;BME280_pressure;Samples;Min_cycle;Max_cycle;Signal;HPM_P1;HPM_P2
2023/08/07 00:02:16;;;;;;;3.60;2.60;;;;;;;28.37;55.82;100074.64;106678;1257;22537;-51
2023/08/07 00:04:43;;;;;;;5.60;3.00;;;;;;;28.35;56.01;100084.67;106901;1264;25332;-51
2023/08/07 00:07:10;;;;;;;2.90;2.70;;;;;;;28.33;56.18;100080.09;106878;1253;25417;-51
2023/08/07 00:09:37;;;;;;;2.90;2.60;;;;;;;28.31;56.56;100078.05;106761;1264;25927;-52
2023/08/07 00:12:04;;;;;;;3.90;2.90;;;;;;;28.28;56.66;100078.30;107100;1254;23187;-51
2023/08/07 00:14:31;;;;;;;5.80;3.30;;;;;;;28.26;56.89;100080.67;107057;1263;22550;-51
2023/08/07 00:16:58;;;;;;;4.00;3.50;;;;;;;28.25;57.05;100077.63;107116;1253;25376;-51
2023/08/07 00:19:25;;;;;;;4.40;3.20;;;;;;;28.25;57.13;100074.24;106947;1266;25481;-52
2023/08/07 00:21:52;;;;;;;6.20;3.60;;;;;;;28.24;57.28;100071.66;106889;1263;25459;-52
2023/08/07 00:24:19;;;;;;;5.10;3.90;;;;;;;28.23;57.31;100073.90;106946;1251;24050;-51
2023/08/07 00:26:46;;;;;;;4.20;3.70;;;;;;;28.23;57.37;100073.91;107155;1261;25341;-51
2023/08/07 00:29:13;;;;;;;3.90;3.60;;;;;;;28.23;57.35;100075.15;107125;1250;22591;-51
2023/08/07 00:31:40;;;;;;;4.00;3.50;;;;;;;28.23;57.52;100067.30;106838;1267;25382;-51
2023/08/07 00:34:09;;;;;;;4.20;3.80;;;;;;;28.22;57.55;100066.67;107122;1266;25340;-52
2023/08/07 00:36:36;;;;;;;4.30;3.90;;;;;;;28.21;57.29;100068.70;107204;1259;22601;-51
2023/08/07 00:39:03;;;;;;;3.80;3.50;;;;;;;28.21;57.16;100065.70;106987;1266;25369;-51
2023/08/07 00:41:30;;;;;;;4.20;3.90;;;;;;;28.21;57.20;100071.06;107019;1256;25389;-50
2023/08/07 00:43:57;;;;;;;5.00;3.90;;;;;;;28.20;57.00;100069.15;107088;1263;25453;-51
2023/08/07 00:46:25;;;;;;;3.70;3.40;;;;;;;28.20;56.85;100067.27;107125;1254;25490;-51
2023/08/07 00:48:52;;;;;;;4.90;4.30;;;;;;;28.19;56.79;100068.01;107125;1265;25350;-51
2023/08/07 00:51:20;;;;;;;4.20;3.80;;;;;;;28.19;56.71;100065.01;107210;1263;25418;-50
2023/08/07 00:53:47;;;;;;;4.50;4.10;;;;;;;28.19;56.73;100062.36;107161;1263;22744;-51
2023/08/07 00:56:14;;;;;;;4.30;3.80;;;;;;;28.19;56.61;100060.20;107181;1266;22549;-51
2023/08/07 00:58:41;;;;;;;4.40;3.70;;;;;;;28.18;56.68;100059.72;107178;1263;23159;-50
2023/08/07 01:01:08;;;;;;;4.70;3.40;;;;;;;28.18;56.54;100063.52;107074;1265;22533;-52
2023/08/07 01:03:35;;;;;;;3.80;3.50;;;;;;;28.17;56.35;100063.21;106964;1265;25424;-51
2023/08/07 01:06:02;;;;;;;4.60;4.20;;;;;;;28.18;56.20;100065.99;107158;1255;25417;-51
2023/08/07 01:08:29;;;;;;;4.20;3.80;;;;;;;28.18;56.19;100064.59;107161;1260;25369;-51
2023/08/07 01:11:10;;;;;;;4.10;3.60;;;;;;;28.18;56.12;100065.32;107104;1266;25439;-51
2023/08/07 01:13:42;;;;;;;;;;;;;;;28.18;55.93;100069.20;107188;1258;25334;-51
2023/08/07 01:16:19;;;;;;;4.10;3.50;;;;;;;28.18;55.90;100069.20;107122;1257;25481;-51
2023/08/07 01:18:47;;;;;;;4.50;3.70;;;;;;;28.19;55.77;100068.22;107143;1262;24262;-50
2023/08/07 01:21:18;;;;;;;3.80;3.40;;;;;;;28.21;55.90;100067.17;107249;1262;22736;-51
2023/08/07 01:23:48;;;;;;;4.20;3.80;;;;;;;28.22;55.71;100071.33;107136;1257;22636;-52
2023/08/07 01:26:18;;;;;;;7.00;3.70;;;;;;;28.22;55.74;100077.88;107159;1264;25490;-50
2023/08/07 01:29:00;;;;;;;3.90;3.50;;;;;;;28.22;55.59;100078.42;107090;1266;22741;-51
2023/08/07 01:31:27;;;;;;;5.90;3.50;;;;;;;28.22;55.05;100077.59;107211;1259;22509;-52
2023/08/07 01:33:58;;;;;;;5.30;3.60;;;;;;;28.22;55.14;100078.12;107062;1265;25458;-51
2023/08/07 01:36:27;;;;;;;4.20;3.80;;;;;;;28.21;55.17;100085.17;106894;1263;22653;-50
2023/08/07 01:38:55;;;;;;;3.40;3.10;;;;;;;28.20;54.99;100089.35;107007;1257;23377;-51
2023/08/07 01:41:22;;;;;;;3.50;3.20;;;;;;;28.24;54.93;100090.86;107134;1251;25350;-51
2023/08/07 01:43:49;;;;;;;3.50;3.20;;;;;;;28.25;54.73;100085.63;107065;1260;25453;-51
2023/08/07 01:46:18;;;;;;;4.00;3.60;;;;;;;28.23;54.71;100090.27;107164;1264;25417;-50
2023/08/07 01:48:45;;;;;;;3.30;3.00;;;;;;;28.19;54.82;100085.86;107179;1263;25413;-50
2023/08/07 01:51:12;;;;;;;3.40;3.10;;;;;;;28.22;54.58;100086.27;107182;1260;25490;-51
2023/08/07 01:53:39;;;;;;;3.40;3.10;;;;;;;28.15;54.52;100086.29;106984;1251;26503;-50
2023/08/07 01:56:06;;;;;;;4.20;3.30;;;;;;;28.11;54.45;100084.96;106855;1263;25382;-51
2023/08/07 01:58:33;;;;;;;3.40;3.10;;;;;;;28.10;54.62;100090.80;106666;1266;25407;-50
2023/08/07 02:01:00;;;;;;;3.50;3.20;;;;;;;28.09;54.59;100096.22;106669;1265;25331;-51
2023/08/07 02:03:27;;;;;;;3.50;3.20;;;;;;;28.07;54.46;100088.75;107056;1263;25368;-51
2023/08/07 02:05:55;;;;;;;3.90;3.20;;;;;;;28.06;54.46;100089.80;106966;1259;24330;-51
2023/08/07 02:08:23;;;;;;;3.60;3.30;;;;;;;28.03;54.50;100081.85;107162;1266;25456;-50
2023/08/07 02:10:50;;;;;;;3.30;3.00;;;;;;;28.02;54.61;100086.48;107086;1257;25365;-50
2023/08/07 02:13:17;;;;;;;3.40;3.10;;;;;;;28.01;54.50;100080.88;107087;1262;25577;-51
2023/08/07 02:15:44;;;;;;;3.60;3.20;;;;;;;28.01;54.36;100084.27;107088;1263;22523;-51
2023/08/07 02:18:11;;;;;;;3.70;3.40;;;;;;;27.97;54.28;100085.20;107101;1253;25343;-50
2023/08/07 02:20:38;;;;;;;3.30;3.10;;;;;;;27.95;54.39;100096.60;106956;1272;25417;-51
2023/08/07 02:23:05;;;;;;;3.50;3.20;;;;;;;27.94;54.38;100086.79;107166;1261;25341;-50
2023/08/07 02:25:32;;;;;;;3.40;3.10;;;;;;;27.94;54.28;100089.80;107369;1260;25420;-52
2023/08/07 02:27:59;;;;;;;3.50;3.20;;;;;;;27.93;54.22;100100.59;107131;1263;25406;-51
2023/08/07 02:30:26;;;;;;;3.10;2.80;;;;;;;27.92;54.22;100105.54;107000;1256;25344;-49
2023/08/07 02:32:53;;;;;;;6.20;3.30;;;;;;;27.90;54.22;100103.52;106992;1269;25338;-50
2023/08/07 02:35:21;;;;;;;3.60;3.20;;;;;;;27.90;54.11;100115.29;107199;1263;25340;-50
2023/08/07 02:37:48;;;;;;;3.60;3.00;;;;;;;27.90;54.12;100120.73;107064;1256;25799;-51
2023/08/07 02:40:15;;;;;;;3.20;2.90;;;;;;;27.89;54.01;100125.44;107158;1263;25356;-50
2023/08/07 02:42:42;;;;;;;3.20;2.90;;;;;;;27.87;54.05;100129.01;107062;1266;25487;-51
2023/08/07 02:45:09;;;;;;;5.40;3.20;;;;;;;27.85;54.23;100124.58;107092;1264;25369;-51
2023/08/07 02:47:36;;;;;;;4.30;3.10;;;;;;;27.83;54.19;100120.73;107143;1263;22528;-49
2023/08/07 02:50:04;;;;;;;3.40;3.20;;;;;;;27.80;54.28;100123.30;107291;1263;25341;-51
2023/08/07 02:52:31;;;;;;;3.50;3.20;;;;;;;27.79;54.29;100126.65;107093;1254;25341;-51
2023/08/07 02:54:59;;;;;;;5.20;3.30;;;;;;;27.78;54.27;100129.79;107147;1263;25343;-51
2023/08/07 02:57:26;;;;;;;4.40;3.10;;;;;;;27.77;54.35;100130.08;106748;1262;25485;-50
2023/08/07 02:59:53;;;;;;;3.10;2.80;;;;;;;27.76;54.44;100134.29;106834;1263;25422;-51
2023/08/07 03:02:20;;;;;;;4.00;3.00;;;;;;;27.74;54.49;100139.85;106758;1266;25328;-51
2023/08/07 03:04:47;;;;;;;3.10;2.90;;;;;;;27.73;54.61;100149.61;106409;1270;25373;-51
2023/08/07 03:07:14;;;;;;;5.90;3.70;;;;;;;27.72;54.56;100149.81;106842;1259;25491;-51
2023/08/07 03:09:46;;;;;;;4.70;3.50;;;;;;;27.70;54.56;100150.43;106709;1267;25356;-49
2023/08/07 03:12:13;;;;;;;3.60;3.30;;;;;;;27.68;54.65;100151.31;106786;1267;25445;-51
2023/08/07 03:14:40;;;;;;;4.50;3.20;;;;;;;27.66;54.70;100153.10;106744;1259;25328;-51
2023/08/07 03:17:07;;;;;;;3.10;2.80;;;;;;;27.64;54.76;100154.78;106714;1262;25418;-51
2023/08/07 03:19:34;;;;;;;4.40;3.50;;;;;;;27.62;54.70;100158.51;106906;1266;25331;-50
2023/08/07 03:22:01;;;;;;;3.40;3.10;;;;;;;27.60;54.77;100161.10;106815;1264;25348;-50
2023/08/07 03:24:28;;;;;;;3.30;3.00;;;;;;;27.57;54.77;100165.79;106776;1266;25520;-52
2023/08/07 03:26:56;;;;;;;2.90;2.70;;;;;;;27.56;54.81;100168.66;106744;1257;25376;-51
2023/08/07 03:29:23;;;;;;;3.00;2.70;;;;;;;27.53;54.89;100168.89;106828;1267;25347;-51
2023/08/07 03:31:52;;;;;;;3.60;3.30;;;;;;;27.52;55.08;100167.99;106794;1270;25350;-51
2023/08/07 03:34:19;;;;;;;5.00;3.00;;;;;;;27.51;54.82;100167.73;107014;1266;22635;-51
2023/08/07 03:36:46;;;;;;;3.70;3.10;;;;;;;27.49;54.90;100175.56;107024;1253;23871;-51
2023/08/07 03:39:13;;;;;;;3.50;3.20;;;;;;;27.48;54.77;100180.80;106930;1263;22778;-51
2023/08/07 03:41:41;;;;;;;4.80;3.30;;;;;;;27.48;54.76;100181.41;106971;1267;25366;-50
2023/08/07 03:44:09;;;;;;;3.10;2.80;;;;;;;27.46;54.71;100176.79;106823;1263;25335;-51
2023/08/07 03:46:36;;;;;;;3.60;3.30;;;;;;;27.44;54.83;100177.85;106839;1267;25341;-51
2023/08/07 03:49:03;;;;;;;4.20;3.30;;;;;;;27.45;54.85;100177.39;106848;1266;25490;-51
2023/08/07 03:51:32;;;;;;;3.80;3.50;;;;;;;27.49;54.94;100175.89;106840;1272;25379;-50
2023/08/07 03:53:59;;;;;;;3.40;2.90;;;;;;;27.54;54.69;100176.16;106877;1266;25341;-51
2023/08/07 03:56:26;;;;;;;4.10;3.80;;;;;;;27.57;54.72;100176.88;107155;1266;25452;-50
2023/08/07 03:58:53;;;;;;;3.50;3.20;;;;;;;27.59;54.52;100173.83;106937;1272;25359;-51
2023/08/07 04:01:21;;;;;;;7.00;3.90;;;;;;;27.60;54.57;100178.35;107203;1269;22523;-51
2023/08/07 04:03:49;;;;;;;3.60;3.10;;;;;;;27.61;54.36;100181.86;107180;1269;22734;-51
2023/08/07 04:06:16;;;;;;;3.70;2.90;;;;;;;27.60;54.35;100187.06;107160;1254;25491;-51
2023/08/07 04:08:46;;;;;;;4.00;3.40;;;;;;;27.60;54.46;100195.51;107214;1254;25366;-53
2023/08/07 04:11:13;;;;;;;3.30;3.00;;;;;;;27.58;54.30;100200.88;106951;1266;25368;-51
2023/08/07 04:13:40;;;;;;;5.10;3.00;;;;;;;27.56;54.12;100207.80;107144;1260;25284;-50
2023/08/07 04:16:08;;;;;;;3.70;3.00;;;;;;;27.54;54.18;100206.59;107186;1262;25369;-51
2023/08/07 04:18:35;;;;;;;3.10;2.90;;;;;;;27.51;54.15;100201.42;106945;1266;25331;-51
2023/08/07 04:21:03;;;;;;;3.40;3.10;;;;;;;27.49;54.11;100206.73;107144;1260;25369;-51
2023/08/07 04:23:31;;;;;;;3.80;3.40;;;;;;;27.48;54.20;100208.80;106939;1266;22572;-50
2023/08/07 04:25:59;;;;;;;3.40;3.10;;;;;;;27.48;54.31;100210.81;107195;1262;25343;-50
2023/08/07 04:28:28;;;;;;;4.10;3.30;;;;;;;27.47;54.49;100213.50;107039;1257;25350;-51
2023/08/07 04:30:55;;;;;;;5.20;3.70;;;;;;;27.47;54.37;100217.45;107103;1263;25344;-50
2023/08/07 04:33:22;;;;;;;4.40;3.70;;;;;;;27.47;54.36;100215.52;107180;1263;25449;-51
2023/08/07 04:35:49;;;;;;;3.70;3.30;;;;;;;27.47;54.23;100217.09;107171;1262;25365;-50
2023/08/07 04:38:17;;;;;;;3.50;3.00;;;;;;;27.48;54.32;100220.93;107200;1254;22544;-49
2023/08/07 04:40:47;;;;;;;6.20;3.70;;;;;;;27.48;54.00;100222.02;107151;1263;25341;-50
2023/08/07 04:43:15;;;;;;;4.80;3.10;;;;;;;27.47;53.84;100222.47;107153;1262;22540;-51
2023/08/07 04:45:44;;;;;;;3.40;3.10;;;;;;;27.46;53.98;100227.90;107138;1263;25398;-51
2023/08/07 04:48:11;;;;;;;4.90;3.30;;;;;;;27.46;53.95;100224.73;106937;1256;25366;-51
2023/08/07 04:50:39;;;;;;;3.80;3.50;;;;;;;27.45;53.80;100220.18;107090;1260;25356;-51
2023/08/07 04:53:06;;;;;;;3.60;3.30;;;;;;;27.44;53.86;100217.56;107217;1250;25511;-51
2023/08/07 04:55:33;;;;;;;4.20;3.80;;;;;;;27.44;53.77;100215.59;107053;1269;25359;-51
2023/08/07 04:58:00;;;;;;;6.90;3.90;;;;;;;27.45;53.84;100219.08;107220;1260;25481;-52
2023/08/07 05:00:27;;;;;;;4.20;3.70;;;;;;;27.47;53.92;100223.67;107017;1266;25359;-51
2023/08/07 05:02:54;;;;;;;4.90;3.70;;;;;;;27.49;53.86;100221.55;107137;1259;25481;-51
2023/08/07 05:05:21;;;;;;;3.60;3.30;;;;;;;27.50;53.90;100222.46;107153;1266;25369;-50
2023/08/07 05:07:48;;;;;;;4.30;3.90;;;;;;;27.51;53.90;100223.11;107090;1260;25350;-51
2023/08/07 05:10:15;;;;;;;5.50;3.70;;;;;;;27.54;53.97;100225.50;107017;1257;24225;-51
2023/08/07 05:12:43;;;;;;;3.90;3.60;;;;;;;27.56;54.27;100229.33;106939;1253;22544;-51
2023/08/07 05:15:10;;;;;;;4.00;3.70;;;;;;;27.59;54.18;100232.63;106422;1267;25369;-51
2023/08/07 05:17:37;;;;;;;4.20;3.80;;;;;;;27.62;54.17;100236.73;106456;1268;25389;-51
2023/08/07 05:20:05;;;;;;;5.30;4.00;;;;;;;27.66;53.89;100237.03;106693;1270;25459;-51
2023/08/07 05:22:33;;;;;;;4.80;3.80;;;;;;;27.70;53.91;100235.77;106922;1254;23931;-51
2023/08/07 05:24:59;;;;;;;3.60;3.30;;;;;;;27.74;53.79;100235.86;106955;1253;25303;-51
2023/08/07 05:27:28;;;;;;;4.00;3.70;;;;;;;27.79;53.61;100239.85;106928;1263;25340;-51
2023/08/07 05:29:55;;;;;;;4.40;3.80;;;;;;;27.83;53.50;100250.64;107103;1260;22778;-51
2023/08/07 05:32:22;;;;;;;4.60;4.10;;;;;;;27.88;53.30;100248.70;107055;1267;25332;-51
2023/08/07 05:34:50;;;;;;;4.50;4.10;;;;;;;27.93;53.25;100248.58;107138;1263;25430;-52
2023/08/07 05:37:17;;;;;;;4.80;4.20;;;;;;;27.99;52.70;100249.55;106949;1269;25369;-51
2023/08/07 05:39:44;;;;;;;4.00;3.50;;;;;;;28.15;52.71;100256.42;107174;1253;25474;-52
2023/08/07 05:42:12;;;;;;;4.00;3.60;;;;;;;28.41;52.29;100260.92;107151;1263;24184;-51
2023/08/07 05:44:39;;;;;;;4.50;4.10;;;;;;;28.72;51.70;100265.48;106901;1259;25558;-51
2023/08/07 05:47:07;;;;;;;3.90;3.60;;;;;;;29.05;50.86;100268.54;107179;1269;25332;-52
2023/08/07 05:49:34;;;;;;;4.40;4.00;;;;;;;29.39;50.14;100276.18;106811;1260;24031;-51
2023/08/07 05:52:01;;;;;;;4.10;3.70;;;;;;;29.65;49.26;100274.84;107241;1256;25369;-51
2023/08/07 05:54:28;;;;;;;4.40;4.00;;;;;;;29.87;48.47;100282.35;107239;1264;25367;-51
2023/08/07 05:56:55;;;;;;;4.30;3.90;;;;;;;30.01;47.98;100282.71;107199;1251;25490;-51
2023/08/07 05:59:22;;;;;;;5.20;3.40;;;;;;;30.15;47.69;100291.82;107271;1263;25360;-51
2023/08/07 06:01:49;;;;;;;5.80;3.80;;;;;;;30.30;47.47;100296.58;107294;1269;25436;-51
2023/08/07 06:04:17;;;;;;;3.70;3.40;;;;;;;30.50;47.01;100299.97;107149;1263;25334;-51
2023/08/07 06:06:45;;;;;;;3.60;3.30;;;;;;;30.70;46.10;100307.16;107197;1263;22624;-51
2023/08/07 06:09:15;;;;;;;4.70;3.20;;;;;;;30.86;45.59;100304.64;107244;1262;25334;-51
2023/08/07 06:11:42;;;;;;;3.10;2.80;;;;;;;30.95;45.35;100307.88;107041;1266;25341;-51
2023/08/07 06:14:09;;;;;;;4.70;3.10;;;;;;;31.00;45.15;100312.99;107200;1266;25491;-50
2023/08/07 06:16:36;;;;;;;4.10;3.50;;;;;;;31.01;44.92;100311.38;107246;1258;22532;-50
2023/08/07 06:19:03;;;;;;;3.60;3.30;;;;;;;30.96;44.83;100314.92;107062;1260;22534;-52
2023/08/07 06:21:32;;;;;;;3.80;3.50;;;;;;;30.89;44.52;100314.35;107056;1263;22741;-51
2023/08/07 06:24:00;;;;;;;3.60;3.20;;;;;;;30.79;44.37;100323.04;107226;1254;25342;-51
2023/08/07 06:26:27;;;;;;;4.40;3.30;;;;;;;30.68;44.64;100322.82;107182;1263;25332;-52
2023/08/07 06:28:54;;;;;;;3.30;3.10;;;;;;;30.59;44.66;100319.92;107202;1266;25487;-51
2023/08/07 06:31:21;;;;;;;4.00;3.60;;;;;;;30.52;44.83;100326.33;106892;1266;25458;-51
2023/08/07 06:33:49;;;;;;;3.20;2.90;;;;;;;30.48;45.10;100325.16;107063;1269;25405;-50
2023/08/07 06:36:16;;;;;;;3.20;2.90;;;;;;;30.45;44.92;100328.38;107008;1259;25332;-51
2023/08/07 06:38:43;;;;;;;4.00;3.40;;;;;;;30.43;44.81;100329.89;107179;1266;25487;-51
2023/08/07 06:41:10;;;;;;;3.70;3.30;;;;;;;30.40;44.84;100331.67;107030;1256;25359;-50
2023/08/07 06:43:37;;;;;;;3.40;3.10;;;;;;;30.38;44.83;100337.76;107127;1263;25525;-50
2023/08/07 06:46:04;;;;;;;3.50;3.20;;;;;;;30.36;44.91;100341.05;106957;1261;25369;-50
2023/08/07 06:48:32;;;;;;;3.50;3.20;;;;;;;30.35;45.03;100343.88;106943;1263;23347;-51
2023/08/07 06:50:59;;;;;;;3.60;3.00;;;;;;;30.34;45.11;100341.62;106594;1266;24357;-51
2023/08/07 06:53:26;;;;;;;4.60;2.80;;;;;;;30.34;45.05;100340.78;106339;1262;22527;-51
2023/08/07 06:55:53;;;;;;;3.50;3.20;;;;;;;30.33;44.82;100342.70;106942;1267;25408;-51
2023/08/07 06:58:23;;;;;;;3.70;3.40;;;;;;;30.32;44.67;100343.46;106915;1262;25284;-51
2023/08/07 07:00:50;;;;;;;3.10;2.80;;;;;;;30.31;44.90;100346.42;106588;1273;25362;-50
2023/08/07 07:03:17;;;;;;;2.90;2.70;;;;;;;30.31;44.66;100348.30;106935;1257;25481;-51
2023/08/07 07:05:44;;;;;;;3.40;3.20;;;;;;;30.30;44.73;100351.93;107097;1262;24656;-50
2023/08/07 07:08:11;;;;;;;3.50;3.20;;;;;;;30.33;44.90;100361.09;106855;1267;25391;-50
2023/08/07 07:10:39;;;;;;;5.00;2.90;;;;;;;30.40;44.86;100364.39;107143;1254;25341;-52
2023/08/07 07:13:07;;;;;;;4.60;2.70;;;;;;;30.54;44.48;100363.80;107197;1263;23068;-51
2023/08/07 07:15:35;;;;;;;3.40;3.10;;;;;;;30.72;43.71;100361.42;107113;1256;25335;-50
2023/08/07 07:18:02;;;;;;;3.40;3.10;;;;;;;30.91;43.94;100366.38;107165;1261;25294;-51
2023/08/07 07:20:30;;;;;;;3.50;2.60;;;;;;;31.19;43.67;100372.30;107164;1254;25417;-51
2023/08/07 07:22:57;;;;;;;3.00;2.70;;;;;;;31.51;42.92;100375.44;107130;1260;25369;-50
2023/08/07 07:25:24;;;;;;;2.90;2.60;;;;;;;31.82;41.52;100371.55;107165;1263;25369;-51
2023/08/07 07:27:51;;;;;;;2.80;2.60;;;;;;;32.09;40.94;100375.23;107290;1264;25515;-51
2023/08/07 07:30:18;;;;;;;2.40;2.30;;;;;;;32.33;40.18;100383.92;106983;1271;25458;-51
2023/08/07 07:32:46;;;;;;;2.30;2.10;;;;;;;32.51;39.47;100390.70;107134;1263;25337;-50
2023/08/07 07:35:13;;;;;;;2.80;2.50;;;;;;;32.59;39.28;100390.65;107257;1263;25338;-51
2023/08/07 07:37:40;;;;;;;2.90;2.70;;;;;;;32.63;39.00;100393.73;106908;1266;25365;-51
2023/08/07 07:40:08;;;;;;;2.80;2.50;;;;;;;32.65;38.83;100395.34;106990;1266;25452;-51
2023/08/07 07:42:35;;;;;;;5.80;2.30;;;;;;;32.65;38.64;100392.53;107213;1253;22678;-50
2023/08/07 07:45:04;;;;;;;2.70;2.50;;;;;;;32.66;38.85;100396.58;107169;1254;22668;-51
2023/08/07 07:47:32;;;;;;;4.90;2.80;;;;;;;32.66;38.75;100397.19;106997;1269;25319;-51
2023/08/07 07:50:07;;;;;;;2.80;2.60;;;;;;;32.64;38.52;100394.54;106891;1266;25369;-51
2023/08/07 07:52:34;;;;;;;2.50;2.30;;;;;;;32.60;38.78;100394.07;107146;1263;25418;-51
2023/08/07 07:55:01;;;;;;;3.00;2.60;;;;;;;32.56;38.63;100392.92;107192;1267;25573;-51
2023/08/07 07:57:28;;;;;;;2.80;2.60;;;;;;;32.52;38.83;100392.88;107176;1267;25369;-51
2023/08/07 07:59:55;;;;;;;3.00;2.60;;;;;;;32.49;38.73;100395.98;107133;1263;25369;-50
2023/08/07 08:02:25;;;;;;;2.50;2.30;;;;;;;32.45;38.54;100402.23;107112;1267;25384;-51
2023/08/07 08:04:53;;;;;;;2.00;1.90;;;;;;;32.41;37.99;100400.98;107101;1254;25331;-51
2023/08/07 08:07:20;;;;;;;2.10;1.90;;;;;;;32.38;37.62;100398.65;107189;1269;25475;-52
2023/08/07 08:09:47;;;;;;;2.40;2.20;;;;;;;32.35;37.53;100401.45;107159;1266;25340;-51
2023/08/07 08:12:14;;;;;;;2.00;1.80;;;;;;;32.32;37.24;100408.20;107123;1263;25417;-51
2023/08/07 08:14:41;;;;;;;2.30;2.10;;;;;;;32.31;37.51;100408.55;107009;1266;25344;-51
2023/08/07 08:17:23;;;;;;;2.30;2.20;;;;;;;32.29;37.94;100404.26;107109;1267;23470;-51
2023/08/07 08:19:50;;;;;;;2.80;2.60;;;;;;;32.30;37.99;100409.73;107035;1267;25334;-51
2023/08/07 08:22:18;;;;;;;2.50;1.90;;;;;;;32.31;37.52;100409.77;106793;1263;24205;-51
2023/08/07 08:24:47;;;;;;;2.60;2.20;;;;;;;32.33;37.45;100407.58;106941;1263;22535;-51
2023/08/07 08:27:14;;;;;;;2.10;2.00;;;;;;;32.35;37.60;100416.26;106931;1254;24215;-51
2023/08/07 08:29:42;;;;;;;2.20;1.80;;;;;;;32.40;37.66;100412.62;106996;1254;24230;-51
2023/08/07 08:32:09;;;;;;;2.20;2.00;;;;;;;32.44;37.27;100411.14;106878;1263;25411;-52
2023/08/07 08:34:36;;;;;;;1.70;1.60;;;;;;;32.46;36.86;100410.67;107030;1262;25300;-50
2023/08/07 08:37:05;;;;;;;2.10;1.90;;;;;;;32.48;36.48;100411.58;106710;1260;25328;-52
2023/08/07 08:39:32;;;;;;;2.70;2.00;;;;;;;32.48;36.65;100411.73;106816;1260;24221;-51
2023/08/07 08:41:59;;;;;;;1.70;1.60;;;;;;;32.46;36.93;100416.82;106968;1263;25335;-51
2023/08/07 08:44:26;;;;;;;2.20;1.80;;;;;;;32.46;36.89;100421.14;107138;1256;25462;-51
2023/08/07 08:46:55;;;;;;;3.10;2.10;;;;;;;32.50;36.58;100420.14;107134;1260;25335;-51
2023/08/07 08:49:30;;;;;;;2.80;1.90;;;;;;;32.51;36.38;100425.34;106801;1266;25373;-51
2023/08/07 08:51:58;;;;;;;1.80;1.70;;;;;;;32.52;36.27;100431.04;106961;1264;25239;-51
2023/08/07 08:54:25;;;;;;;2.00;1.60;;;;;;;32.52;36.32;100433.27;106971;1256;25380;-50
2023/08/07 08:56:54;;;;;;;3.70;2.10;;;;;;;32.54;35.79;100427.38;106970;1257;25337;-50
2023/08/07 08:59:21;;;;;;;1.80;1.70;;;;;;;32.55;35.23;100431.66;106875;1270;24209;-49
2023/08/07 09:01:50;;;;;;;1.90;1.80;;;;;;;32.57;35.25;100433.60;106684;1276;25328;-50
2023/08/07 09:04:17;;;;;;;2.20;1.90;;;;;;;32.59;35.28;100440.38;106961;1267;23871;-51
2023/08/07 09:06:46;;;;;;;3.20;1.80;;;;;;;32.60;35.08;100445.97;107012;1256;22547;-50
2023/08/07 09:09:13;;;;;;;2.30;1.90;;;;;;;32.59;35.43;100448.60;106862;1260;26555;-51
2023/08/07 09:11:41;;;;;;;3.40;2.10;;;;;;;32.60;37.08;100446.00;106939;1266;25375;-50
2023/08/07 09:14:09;;;;;;;1.90;1.80;;;;;;;32.60;38.00;100441.53;107130;1256;25413;-51
2023/08/07 09:16:37;;;;;;;3.50;1.80;;;;;;;32.60;36.65;100448.90;106777;1266;25353;-50
2023/08/07 09:19:04;;;;;;;2.60;2.20;;;;;;;32.62;36.56;100449.54;106976;1267;25335;-50
2023/08/07 09:21:32;;;;;;;3.00;2.10;;;;;;;32.65;38.21;100449.48;106934;1264;24252;-51
2023/08/07 09:23:59;;;;;;;4.70;2.10;;;;;;;32.69;39.39;100454.23;107118;1269;25334;-50
2023/08/07 09:26:26;;;;;;;3.10;2.30;;;;;;;32.72;39.59;100458.22;107133;1254;25331;-50
2023/08/07 09:28:53;;;;;;;6.60;2.40;;;;;;;32.73;39.52;100461.97;107116;1261;25418;-52
2023/08/07 09:31:21;;;;;;;5.20;2.00;;;;;;;32.72;39.93;100463.70;107127;1254;25356;-51
2023/08/07 09:33:48;;;;;;;6.10;2.10;;;;;;;32.70;40.54;100469.26;107103;1256;22524;-51
2023/08/07 09:36:17;;;;;;;3.60;2.30;;;;;;;32.66;40.58;100470.30;107187;1262;25326;-52
2023/08/07 09:38:49;;;;;;;2.50;2.20;;;;;;;32.62;40.69;100475.79;107204;1260;25331;-51
2023/08/07 09:41:21;;;;;;;2.80;2.10;;;;;;;32.59;40.59;100484.77;107200;1254;22525;-51
2023/08/07 09:43:48;;;;;;;6.90;2.30;;;;;;;32.54;40.39;100488.02;107117;1266;25338;-51
2023/08/07 09:46:15;;;;;;;4.30;1.90;;;;;;;32.49;40.25;100492.60;107140;1261;25373;-51
2023/08/07 09:48:43;;;;;;;3.80;1.90;;;;;;;32.42;40.34;100487.80;107082;1272;25331;-51
2023/08/07 09:51:10;;;;;;;2.90;2.10;;;;;;;32.37;40.56;100491.14;107090;1253;25335;-51
2023/08/07 09:53:37;;;;;;;4.60;2.10;;;;;;;32.32;40.56;100493.66;107249;1254;25488;-52
2023/08/07 09:56:04;;;;;;;4.10;1.80;;;;;;;32.27;40.64;100500.53;107082;1269;25401;-52
2023/08/07 09:58:31;;;;;;;2.90;1.80;;;;;;;32.21;40.69;100503.61;106488;1267;24236;-51
2023/08/07 10:01:05;;;;;;;3.10;1.90;;;;;;;32.13;41.01;100504.54;106897;1263;24344;-51
2023/08/07 10:03:33;;;;;;;3.80;1.90;;;;;;;32.04;41.26;100510.53;107016;1267;25421;-51
2023/08/07 10:06:00;;;;;;;3.40;1.80;;;;;;;31.96;41.33;100507.73;106854;1260;23155;-51
2023/08/07 10:08:27;;;;;;;2.30;1.50;;;;;;;31.91;41.48;100506.71;106706;1260;24237;-51
2023/08/07 10:10:54;;;;;;;3.80;1.60;;;;;;;31.89;41.22;100509.27;106399;1263;25493;-50
2023/08/07 10:13:21;;;;;;;4.40;1.70;;;;;;;31.88;41.34;100513.06;106640;1263;25372;-51
2023/08/07 10:16:04;;;;;;;3.90;1.60;;;;;;;31.90;41.50;100516.44;107048;1249;25356;-50
2023/08/07 10:18:31;;;;;;;4.80;1.60;;;;;;;31.92;42.00;100517.84;107054;1269;25334;-49
2023/08/07 10:20:58;;;;;;;4.00;2.30;;;;;;;31.95;42.08;100520.95;107145;1264;22742;-51
2023/08/07 10:23:25;;;;;;;4.80;2.40;;;;;;;31.93;42.17;100527.83;107038;1271;26203;-50
2023/08/07 10:25:52;;;;;;;3.60;2.10;;;;;;;31.87;42.18;100527.41;107216;1270;25335;-52
2023/08/07 10:28:19;;;;;;;3.00;2.10;;;;;;;31.80;42.13;100524.33;107079;1264;25334;-51
2023/08/07 10:30:48;;;;;;;3.00;2.30;;;;;;;31.73;42.54;100524.73;107199;1265;25488;-51
2023/08/07 10:33:17;;;;;;;4.80;2.20;;;;;;;31.68;42.88;100531.64;107146;1257;25411;-50
2023/08/07 10:35:48;;;;;;;6.00;2.50;;;;;;;31.64;42.94;100532.83;106703;1269;25350;-51
2023/08/07 10:38:16;;;;;;;;;;;;;;;31.57;42.92;100533.92;107025;1269;25471;-48
2023/08/07 10:41:05;;;;;;;3.70;2.50;;;;;;;31.51;43.16;100531.92;106807;1266;25334;-51
2023/08/07 10:43:43;;;;;;;2.10;1.90;;;;;;;31.46;42.97;100531.08;106918;1267;23370;-51
2023/08/07 10:46:44;;;;;;;3.90;1.90;;;;;;;31.46;42.94;100532.75;106923;1266;24539;-51
2023/08/07 10:49:11;;;;;;;4.20;1.90;;;;;;;31.47;42.77;100531.30;106833;1274;25331;-51
2023/08/07 10:51:38;;;;;;;7.00;1.80;;;;;;;31.50;42.56;100527.25;106912;1270;25334;-52
2023/08/07 10:54:05;;;;;;;5.70;1.90;;;;;;;31.52;42.27;100532.35;106909;1269;25357;-51
2023/08/07 10:56:40;;;;;;;2.90;1.70;;;;;;;31.54;42.18;100534.54;106948;1257;22591;-53
2023/08/07 10:59:09;;;;;;;2.60;1.40;;;;;;;31.54;42.55;100536.48;106991;1270;25488;-51
2023/08/07 11:01:39;;;;;;;3.50;1.40;;;;;;;31.54;42.35;100533.00;106775;1270;22540;-50
2023/08/07 11:04:08;;;;;;;3.90;1.30;;;;;;;31.58;42.04;100538.38;107049;1270;25408;-51
2023/08/07 11:06:36;;;;;;;2.80;1.30;;;;;;;31.60;41.65;100540.91;106975;1270;24353;-51
2023/08/07 11:09:04;;;;;;;5.20;1.60;;;;;;;31.61;41.62;100542.46;107077;1256;25372;-51
2023/08/07 11:11:43;;;;;;;4.70;1.40;;;;;;;31.58;41.72;100538.17;107144;1254;25258;-52
2023/08/07 11:14:15;;;;;;;3.80;1.20;;;;;;;31.53;41.87;100539.75;107160;1258;24231;-50
2023/08/07 11:16:43;;;;;;;3.50;1.50;;;;;;;31.51;41.76;100538.41;107032;1260;25346;-51
2023/08/07 11:19:09;;;;;;;4.10;1.40;;;;;;;31.51;42.18;100542.23;107201;1261;25278;-50
2023/08/07 11:21:37;;;;;;;2.20;1.20;;;;;;;31.52;42.22;100548.67;107180;1254;25363;-51